sensor_id;sensor_type;location;lat;lon;timestamp;temperature;humidity
61896;DHT22;47835;52.778;5.956;2022-07-30T00:01:26;22.30;90.60
61896;DHT22;47835;52.778;5.956;2022-07-30T00:03:52;22.20;90.60
61896;DHT22;47835;52.778;5.956;2022-07-30T00:06:17;22.30;90.60
61896;DHT22;47835;52.778;5.956;2022-07-30T00:08:43;22.20;90.60
61896;DHT22;47835;52.778;5.956;2022-07-30T00:11:08;22.30;90.60
61896;DHT22;47835;52.778;5.956;2022-07-30T00:13:36;22.20;90.50
61896;DHT22;47835;52.778;5.956;2022-07-30T00:16:02;22.20;90.50
61896;DHT22;47835;52.778;5.956;2022-07-30T00:18:27;22.20;90.40
61896;DHT22;47835;52.778;5.956;2022-07-30T00:20:53;22.20;90.40
61896;DHT22;47835;52.778;5.956;2022-07-30T00:23:19;22.20;90.30
61896;DHT22;47835;52.778;5.956;2022-07-30T00:25:44;22.20;90.30
61896;DHT22;47835;52.778;5.956;2022-07-30T00:28:10;22.20;90.10
61896;DHT22;47835;52.778;5.956;2022-07-30T00:30:35;22.20;90.10
61896;DHT22;47835;52.778;5.956;2022-07-30T00:33:02;22.20;90.00
61896;DHT22;47835;52.778;5.956;2022-07-30T00:35:28;22.20;89.90
61896;DHT22;47835;52.778;5.956;2022-07-30T00:37:53;22.20;89.80
61896;DHT22;47835;52.778;5.956;2022-07-30T00:40:19;22.20;89.70
61896;DHT22;47835;52.778;5.956;2022-07-30T00:42:46;22.20;89.70
61896;DHT22;47835;52.778;5.956;2022-07-30T00:45:13;22.20;89.70
61896;DHT22;47835;52.778;5.956;2022-07-30T00:47:39;22.20;89.70
61896;DHT22;47835;52.778;5.956;2022-07-30T00:50:07;22.20;89.70
61896;DHT22;47835;52.778;5.956;2022-07-30T00:52:34;22.20;89.70
61896;DHT22;47835;52.778;5.956;2022-07-30T00:55:00;22.20;89.40
61896;DHT22;47835;52.778;5.956;2022-07-30T00:57:27;22.20;89.30
61896;DHT22;47835;52.778;5.956;2022-07-30T00:59:53;22.20;89.40
61896;DHT22;47835;52.778;5.956;2022-07-30T01:02:19;22.10;89.30
61896;DHT22;47835;52.778;5.956;2022-07-30T01:04:45;22.20;89.40
61896;DHT22;47835;52.778;5.956;2022-07-30T01:07:10;22.10;89.30
61896;DHT22;47835;52.778;5.956;2022-07-30T01:09:37;22.10;89.40
61896;DHT22;47835;52.778;5.956;2022-07-30T01:12:02;22.10;89.30
61896;DHT22;47835;52.778;5.956;2022-07-30T01:14:30;22.10;89.30
61896;DHT22;47835;52.778;5.956;2022-07-30T01:16:56;22.10;89.30
61896;DHT22;47835;52.778;5.956;2022-07-30T01:19:25;22.10;89.50
61896;DHT22;47835;52.778;5.956;2022-07-30T01:24:55;22.10;89.40
61896;DHT22;47835;52.778;5.956;2022-07-30T01:27:23;22.10;89.60
61896;DHT22;47835;52.778;5.956;2022-07-30T01:29:50;22.10;89.60
61896;DHT22;47835;52.778;5.956;2022-07-30T01:32:18;22.10;89.50
61896;DHT22;47835;52.778;5.956;2022-07-30T01:34:46;22.10;89.50
61896;DHT22;47835;52.778;5.956;2022-07-30T01:37:12;22.10;89.50
61896;DHT22;47835;52.778;5.956;2022-07-30T01:39:40;22.10;89.60
61896;DHT22;47835;52.778;5.956;2022-07-30T01:42:07;22.10;89.50
61896;DHT22;47835;52.778;5.956;2022-07-30T01:44:36;22.10;89.50
61896;DHT22;47835;52.778;5.956;2022-07-30T01:47:04;22.00;89.60
61896;DHT22;47835;52.778;5.956;2022-07-30T01:49:31;22.00;89.50
61896;DHT22;47835;52.778;5.956;2022-07-30T01:51:59;22.00;89.70
61896;DHT22;47835;52.778;5.956;2022-07-30T01:54:26;22.10;89.70
61896;DHT22;47835;52.778;5.956;2022-07-30T01:56:55;22.00;89.80
61896;DHT22;47835;52.778;5.956;2022-07-30T01:59:22;22.00;89.80
61896;DHT22;47835;52.778;5.956;2022-07-30T02:01:49;22.00;89.80
61896;DHT22;47835;52.778;5.956;2022-07-30T02:04:15;22.00;89.70
61896;DHT22;47835;52.778;5.956;2022-07-30T02:07:23;22.00;89.70
61896;DHT22;47835;52.778;5.956;2022-07-30T02:10:05;22.00;89.70
61896;DHT22;47835;52.778;5.956;2022-07-30T02:12:33;22.00;89.70
61896;DHT22;47835;52.778;5.956;2022-07-30T02:17:40;22.00;89.80
61896;DHT22;47835;52.778;5.956;2022-07-30T02:20:09;22.00;89.90
61896;DHT22;47835;52.778;5.956;2022-07-30T02:22:38;22.00;89.90
61896;DHT22;47835;52.778;5.956;2022-07-30T02:25:05;22.00;90.00
61896;DHT22;47835;52.778;5.956;2022-07-30T02:27:34;22.00;90.00
61896;DHT22;47835;52.778;5.956;2022-07-30T02:30:02;22.00;90.10
61896;DHT22;47835;52.778;5.956;2022-07-30T02:32:33;22.00;90.00
61896;DHT22;47835;52.778;5.956;2022-07-30T02:35:03;21.90;90.00
61896;DHT22;47835;52.778;5.956;2022-07-30T02:37:31;21.90;90.00
61896;DHT22;47835;52.778;5.956;2022-07-30T02:39:58;22.00;90.00
61896;DHT22;47835;52.778;5.956;2022-07-30T02:42:25;22.00;89.90
61896;DHT22;47835;52.778;5.956;2022-07-30T02:44:52;21.90;89.80
61896;DHT22;47835;52.778;5.956;2022-07-30T02:47:20;22.00;89.80
61896;DHT22;47835;52.778;5.956;2022-07-30T02:49:48;21.90;89.60
61896;DHT22;47835;52.778;5.956;2022-07-30T02:52:15;21.90;89.60
61896;DHT22;47835;52.778;5.956;2022-07-30T02:54:43;21.90;89.60
61896;DHT22;47835;52.778;5.956;2022-07-30T02:57:10;21.90;89.40
61896;DHT22;47835;52.778;5.956;2022-07-30T02:59:39;21.90;89.30
61896;DHT22;47835;52.778;5.956;2022-07-30T03:02:07;21.90;89.10
61896;DHT22;47835;52.778;5.956;2022-07-30T03:04:34;21.90;88.90
61896;DHT22;47835;52.778;5.956;2022-07-30T03:07:00;21.90;88.90
61896;DHT22;47835;52.778;5.956;2022-07-30T03:09:27;21.90;88.70
61896;DHT22;47835;52.778;5.956;2022-07-30T03:11:54;21.90;88.70
61896;DHT22;47835;52.778;5.956;2022-07-30T03:14:21;21.90;88.60
61896;DHT22;47835;52.778;5.956;2022-07-30T03:16:52;21.90;88.60
61896;DHT22;47835;52.778;5.956;2022-07-30T03:19:21;21.90;88.40
61896;DHT22;47835;52.778;5.956;2022-07-30T03:21:48;21.90;88.40
61896;DHT22;47835;52.778;5.956;2022-07-30T03:24:15;21.80;88.30
61896;DHT22;47835;52.778;5.956;2022-07-30T03:26:41;21.80;88.00
61896;DHT22;47835;52.778;5.956;2022-07-30T03:29:09;21.80;87.90
61896;DHT22;47835;52.778;5.956;2022-07-30T03:31:35;21.80;88.00
61896;DHT22;47835;52.778;5.956;2022-07-30T03:34:03;21.80;87.70
61896;DHT22;47835;52.778;5.956;2022-07-30T03:36:30;21.80;87.60
61896;DHT22;47835;52.778;5.956;2022-07-30T03:38:55;21.80;87.60
61896;DHT22;47835;52.778;5.956;2022-07-30T03:41:21;21.80;87.70
61896;DHT22;47835;52.778;5.956;2022-07-30T03:43:48;21.80;87.80
61896;DHT22;47835;52.778;5.956;2022-07-30T03:46:15;21.80;87.90
61896;DHT22;47835;52.778;5.956;2022-07-30T03:48:41;21.80;88.00
61896;DHT22;47835;52.778;5.956;2022-07-30T03:51:09;21.80;88.10
61896;DHT22;47835;52.778;5.956;2022-07-30T03:53:35;21.80;88.20
61896;DHT22;47835;52.778;5.956;2022-07-30T03:56:01;21.80;88.30
61896;DHT22;47835;52.778;5.956;2022-07-30T03:58:27;21.80;88.30
61896;DHT22;47835;52.778;5.956;2022-07-30T04:00:53;21.80;88.50
61896;DHT22;47835;52.778;5.956;2022-07-30T04:03:30;21.80;89.30
61896;DHT22;47835;52.778;5.956;2022-07-30T04:05:56;21.80;88.50
61896;DHT22;47835;52.778;5.956;2022-07-30T04:08:22;21.80;88.70
61896;DHT22;47835;52.778;5.956;2022-07-30T04:10:48;21.80;88.80
61896;DHT22;47835;52.778;5.956;2022-07-30T04:13:14;21.80;88.80
61896;DHT22;47835;52.778;5.956;2022-07-30T04:18:26;21.70;88.70
61896;DHT22;47835;52.778;5.956;2022-07-30T04:20:54;21.80;88.90
61896;DHT22;47835;52.778;5.956;2022-07-30T04:23:20;21.80;88.90
61896;DHT22;47835;52.778;5.956;2022-07-30T04:25:46;21.80;88.90
61896;DHT22;47835;52.778;5.956;2022-07-30T04:28:12;21.80;89.20
61896;DHT22;47835;52.778;5.956;2022-07-30T04:30:39;21.80;89.10
61896;DHT22;47835;52.778;5.956;2022-07-30T04:33:06;21.80;89.20
61896;DHT22;47835;52.778;5.956;2022-07-30T04:35:33;21.80;89.30
61896;DHT22;47835;52.778;5.956;2022-07-30T04:37:59;21.80;89.40
61896;DHT22;47835;52.778;5.956;2022-07-30T04:40:27;21.80;89.30
61896;DHT22;47835;52.778;5.956;2022-07-30T04:42:53;21.80;89.50
61896;DHT22;47835;52.778;5.956;2022-07-30T04:45:18;21.70;89.50
61896;DHT22;47835;52.778;5.956;2022-07-30T04:47:45;21.70;89.60
61896;DHT22;47835;52.778;5.956;2022-07-30T04:50:11;21.80;89.80
61896;DHT22;47835;52.778;5.956;2022-07-30T04:52:38;21.80;89.90
61896;DHT22;47835;52.778;5.956;2022-07-30T04:55:06;21.70;89.80
61896;DHT22;47835;52.778;5.956;2022-07-30T04:57:32;21.80;90.00
61896;DHT22;47835;52.778;5.956;2022-07-30T05:00:00;21.80;90.00
61896;DHT22;47835;52.778;5.956;2022-07-30T05:02:29;21.80;90.20
61896;DHT22;47835;52.778;5.956;2022-07-30T05:04:56;21.70;90.10
61896;DHT22;47835;52.778;5.956;2022-07-30T05:07:23;21.80;90.20
61896;DHT22;47835;52.778;5.956;2022-07-30T05:09:49;21.80;90.20
61896;DHT22;47835;52.778;5.956;2022-07-30T05:12:14;21.80;90.40
61896;DHT22;47835;52.778;5.956;2022-07-30T05:14:40;21.80;90.40
61896;DHT22;47835;52.778;5.956;2022-07-30T05:17:06;21.80;90.50
61896;DHT22;47835;52.778;5.956;2022-07-30T05:19:32;21.80;92.30
61896;DHT22;47835;52.778;5.956;2022-07-30T05:21:57;21.70;93.40
61896;DHT22;47835;52.778;5.956;2022-07-30T05:24:23;21.60;93.50
61896;DHT22;47835;52.778;5.956;2022-07-30T05:26:49;21.60;94.30
61896;DHT22;47835;52.778;5.956;2022-07-30T05:29:14;21.60;95.00
61896;DHT22;47835;52.778;5.956;2022-07-30T05:31:40;21.50;95.90
61896;DHT22;47835;52.778;5.956;2022-07-30T05:34:06;21.60;97.50
61896;DHT22;47835;52.778;5.956;2022-07-30T05:36:32;21.50;97.30
61896;DHT22;47835;52.778;5.956;2022-07-30T05:38:58;21.60;97.10
61896;DHT22;47835;52.778;5.956;2022-07-30T05:41:24;21.50;97.20
61896;DHT22;47835;52.778;5.956;2022-07-30T05:43:52;21.50;97.70
61896;DHT22;47835;52.778;5.956;2022-07-30T05:46:17;21.50;97.90
61896;DHT22;47835;52.778;5.956;2022-07-30T05:48:43;21.50;98.30
61896;DHT22;47835;52.778;5.956;2022-07-30T05:51:08;21.50;98.70
61896;DHT22;47835;52.778;5.956;2022-07-30T05:53:34;21.50;99.30
61896;DHT22;47835;52.778;5.956;2022-07-30T05:55:59;21.40;98.50
61896;DHT22;47835;52.778;5.956;2022-07-30T05:58:25;21.50;98.80
61896;DHT22;47835;52.778;5.956;2022-07-30T06:00:50;21.50;99.40
61896;DHT22;47835;52.778;5.956;2022-07-30T06:03:16;21.50;98.70
61896;DHT22;47835;52.778;5.956;2022-07-30T06:05:42;21.60;98.40
61896;DHT22;47835;52.778;5.956;2022-07-30T06:08:07;21.60;97.80
61896;DHT22;47835;52.778;5.956;2022-07-30T06:10:33;21.60;97.40
61896;DHT22;47835;52.778;5.956;2022-07-30T06:12:59;21.60;96.70
61896;DHT22;47835;52.778;5.956;2022-07-30T06:15:25;21.70;96.50
61896;DHT22;47835;52.778;5.956;2022-07-30T06:17:50;21.70;96.40
61896;DHT22;47835;52.778;5.956;2022-07-30T06:20:17;21.70;96.00
61896;DHT22;47835;52.778;5.956;2022-07-30T06:22:43;21.70;95.90
61896;DHT22;47835;52.778;5.956;2022-07-30T06:25:09;21.80;95.60
61896;DHT22;47835;52.778;5.956;2022-07-30T06:27:35;21.80;95.70
61896;DHT22;47835;52.778;5.956;2022-07-30T06:30:03;21.80;95.70
61896;DHT22;47835;52.778;5.956;2022-07-30T06:32:28;21.80;95.80
61896;DHT22;47835;52.778;5.956;2022-07-30T06:34:54;21.80;95.90
61896;DHT22;47835;52.778;5.956;2022-07-30T06:37:20;21.90;95.30
61896;DHT22;47835;52.778;5.956;2022-07-30T06:39:45;21.90;95.90
61896;DHT22;47835;52.778;5.956;2022-07-30T06:42:11;21.90;95.60
61896;DHT22;47835;52.778;5.956;2022-07-30T06:44:36;21.90;95.40
61896;DHT22;47835;52.778;5.956;2022-07-30T06:47:02;21.90;95.90
61896;DHT22;47835;52.778;5.956;2022-07-30T06:49:30;21.90;96.60
61896;DHT22;47835;52.778;5.956;2022-07-30T06:51:56;21.90;97.40
61896;DHT22;47835;52.778;5.956;2022-07-30T06:54:21;21.90;97.90
61896;DHT22;47835;52.778;5.956;2022-07-30T06:56:47;21.90;97.30
61896;DHT22;47835;52.778;5.956;2022-07-30T06:59:12;21.90;96.90
61896;DHT22;47835;52.778;5.956;2022-07-30T07:01:38;21.90;96.90
61896;DHT22;47835;52.778;5.956;2022-07-30T07:04:04;21.80;96.80
61896;DHT22;47835;52.778;5.956;2022-07-30T07:06:29;21.90;97.20
61896;DHT22;47835;52.778;5.956;2022-07-30T07:08:55;21.90;97.10
61896;DHT22;47835;52.778;5.956;2022-07-30T07:11:20;21.80;97.50
61896;DHT22;47835;52.778;5.956;2022-07-30T07:13:46;21.80;97.30
61896;DHT22;47835;52.778;5.956;2022-07-30T07:16:11;21.90;97.00
61896;DHT22;47835;52.778;5.956;2022-07-30T07:18:37;21.90;96.70
61896;DHT22;47835;52.778;5.956;2022-07-30T07:21:02;21.90;96.50
61896;DHT22;47835;52.778;5.956;2022-07-30T07:23:28;21.90;96.80
61896;DHT22;47835;52.778;5.956;2022-07-30T07:25:54;21.90;96.30
61896;DHT22;47835;52.778;5.956;2022-07-30T07:28:20;21.80;96.60
61896;DHT22;47835;52.778;5.956;2022-07-30T07:30:46;21.90;96.30
61896;DHT22;47835;52.778;5.956;2022-07-30T07:33:11;21.90;97.60
61896;DHT22;47835;52.778;5.956;2022-07-30T07:35:37;21.90;97.00
61896;DHT22;47835;52.778;5.956;2022-07-30T07:38:03;21.90;96.00
61896;DHT22;47835;52.778;5.956;2022-07-30T07:40:28;21.90;96.00
61896;DHT22;47835;52.778;5.956;2022-07-30T07:42:54;21.90;96.30
61896;DHT22;47835;52.778;5.956;2022-07-30T07:45:19;21.90;95.50
61896;DHT22;47835;52.778;5.956;2022-07-30T07:47:46;21.90;95.20
61896;DHT22;47835;52.778;5.956;2022-07-30T07:50:15;21.90;95.60
61896;DHT22;47835;52.778;5.956;2022-07-30T07:52:41;21.90;95.60
61896;DHT22;47835;52.778;5.956;2022-07-30T07:55:07;22.00;95.30
61896;DHT22;47835;52.778;5.956;2022-07-30T07:57:44;21.90;95.10
61896;DHT22;47835;52.778;5.956;2022-07-30T08:00:11;21.90;95.50
61896;DHT22;47835;52.778;5.956;2022-07-30T08:02:37;22.00;95.20
61896;DHT22;47835;52.778;5.956;2022-07-30T08:05:04;22.00;95.20
61896;DHT22;47835;52.778;5.956;2022-07-30T08:07:30;22.00;94.80
61896;DHT22;47835;52.778;5.956;2022-07-30T08:09:56;22.00;95.70
61896;DHT22;47835;52.778;5.956;2022-07-30T08:12:22;22.00;95.10
61896;DHT22;47835;52.778;5.956;2022-07-30T08:14:47;22.00;94.80
61896;DHT22;47835;52.778;5.956;2022-07-30T08:17:13;22.00;94.80
61896;DHT22;47835;52.778;5.956;2022-07-30T08:19:39;22.00;94.90
61896;DHT22;47835;52.778;5.956;2022-07-30T08:22:04;22.00;94.60
61896;DHT22;47835;52.778;5.956;2022-07-30T08:24:30;22.00;94.50
61896;DHT22;47835;52.778;5.956;2022-07-30T08:26:56;22.00;94.50
61896;DHT22;47835;52.778;5.956;2022-07-30T08:29:21;22.00;94.60
61896;DHT22;47835;52.778;5.956;2022-07-30T08:31:47;22.00;94.40
61896;DHT22;47835;52.778;5.956;2022-07-30T08:34:12;22.00;94.40
61896;DHT22;47835;52.778;5.956;2022-07-30T08:36:38;22.00;94.30
61896;DHT22;47835;52.778;5.956;2022-07-30T08:39:04;22.00;94.20
61896;DHT22;47835;52.778;5.956;2022-07-30T08:41:30;22.00;94.20
61896;DHT22;47835;52.778;5.956;2022-07-30T08:43:59;22.00;94.20
61896;DHT22;47835;52.778;5.956;2022-07-30T08:46:26;22.00;94.10
61896;DHT22;47835;52.778;5.956;2022-07-30T08:48:54;22.00;94.00
61896;DHT22;47835;52.778;5.956;2022-07-30T08:51:19;22.00;94.10
61896;DHT22;47835;52.778;5.956;2022-07-30T08:53:46;22.00;94.20
61896;DHT22;47835;52.778;5.956;2022-07-30T08:56:12;22.00;94.50
61896;DHT22;47835;52.778;5.956;2022-07-30T08:58:37;22.10;94.60
61896;DHT22;47835;52.778;5.956;2022-07-30T09:01:04;22.00;94.60
61896;DHT22;47835;52.778;5.956;2022-07-30T09:03:30;22.10;94.30
61896;DHT22;47835;52.778;5.956;2022-07-30T09:05:57;22.00;94.30
61896;DHT22;47835;52.778;5.956;2022-07-30T09:08:23;22.10;94.20
61896;DHT22;47835;52.778;5.956;2022-07-30T09:10:48;22.10;95.20
61896;DHT22;47835;52.778;5.956;2022-07-30T09:13:31;22.10;94.90
61896;DHT22;47835;52.778;5.956;2022-07-30T09:15:59;22.10;94.90
61896;DHT22;47835;52.778;5.956;2022-07-30T09:18:27;22.10;95.80
61896;DHT22;47835;52.778;5.956;2022-07-30T09:20:53;22.10;95.60
61896;DHT22;47835;52.778;5.956;2022-07-30T09:23:19;22.20;95.40
61896;DHT22;47835;52.778;5.956;2022-07-30T09:25:46;22.20;95.40
61896;DHT22;47835;52.778;5.956;2022-07-30T09:28:13;22.20;95.40
61896;DHT22;47835;52.778;5.956;2022-07-30T09:30:52;22.20;94.60
61896;DHT22;47835;52.778;5.956;2022-07-30T09:33:32;22.20;94.50
61896;DHT22;47835;52.778;5.956;2022-07-30T09:35:59;22.20;94.30
61896;DHT22;47835;52.778;5.956;2022-07-30T09:38:26;22.20;94.40
61896;DHT22;47835;52.778;5.956;2022-07-30T09:40:54;22.20;95.10
61896;DHT22;47835;52.778;5.956;2022-07-30T09:43:20;22.20;94.50
61896;DHT22;47835;52.778;5.956;2022-07-30T09:45:53;22.20;94.00
61896;DHT22;47835;52.778;5.956;2022-07-30T09:48:25;22.20;93.90
61896;DHT22;47835;52.778;5.956;2022-07-30T09:50:51;22.20;93.80
61896;DHT22;47835;52.778;5.956;2022-07-30T09:53:18;22.20;93.90
61896;DHT22;47835;52.778;5.956;2022-07-30T09:55:44;22.20;94.50
61896;DHT22;47835;52.778;5.956;2022-07-30T09:58:10;22.20;93.90
61896;DHT22;47835;52.778;5.956;2022-07-30T10:00:37;22.20;93.70
61896;DHT22;47835;52.778;5.956;2022-07-30T10:03:22;22.20;93.60
61896;DHT22;47835;52.778;5.956;2022-07-30T10:05:53;22.20;93.80
61896;DHT22;47835;52.778;5.956;2022-07-30T10:08:20;22.20;93.70
61896;DHT22;47835;52.778;5.956;2022-07-30T10:10:46;22.30;93.50
61896;DHT22;47835;52.778;5.956;2022-07-30T10:13:15;22.30;93.80
61896;DHT22;47835;52.778;5.956;2022-07-30T10:15:44;22.30;93.60
61896;DHT22;47835;52.778;5.956;2022-07-30T10:18:10;22.30;93.60
61896;DHT22;47835;52.778;5.956;2022-07-30T10:20:36;22.20;93.70
61896;DHT22;47835;52.778;5.956;2022-07-30T10:23:05;22.30;93.20
61896;DHT22;47835;52.778;5.956;2022-07-30T10:25:31;22.30;93.50
61896;DHT22;47835;52.778;5.956;2022-07-30T10:27:58;22.30;93.50
61896;DHT22;47835;52.778;5.956;2022-07-30T10:30:25;22.30;93.50
61896;DHT22;47835;52.778;5.956;2022-07-30T10:32:52;22.30;93.50
61896;DHT22;47835;52.778;5.956;2022-07-30T10:35:18;22.30;93.30
61896;DHT22;47835;52.778;5.956;2022-07-30T10:37:47;22.30;93.20
61896;DHT22;47835;52.778;5.956;2022-07-30T10:45:51;22.30;92.90
61896;DHT22;47835;52.778;5.956;2022-07-30T10:48:19;22.30;92.50
61896;DHT22;47835;52.778;5.956;2022-07-30T10:50:51;22.30;92.80
61896;DHT22;47835;52.778;5.956;2022-07-30T10:53:41;22.30;93.10
61896;DHT22;47835;52.778;5.956;2022-07-30T10:56:11;22.30;93.00
61896;DHT22;47835;52.778;5.956;2022-07-30T10:59:02;22.30;93.00
61896;DHT22;47835;52.778;5.956;2022-07-30T11:04:24;22.30;92.70
61896;DHT22;47835;52.778;5.956;2022-07-30T11:06:51;22.30;93.30
61896;DHT22;47835;52.778;5.956;2022-07-30T11:09:39;22.40;93.30
61896;DHT22;47835;52.778;5.956;2022-07-30T11:12:06;22.40;93.60
61896;DHT22;47835;52.778;5.956;2022-07-30T11:17:11;22.40;95.00
61896;DHT22;47835;52.778;5.956;2022-07-30T11:22:39;22.40;94.60
61896;DHT22;47835;52.778;5.956;2022-07-30T11:25:07;22.40;94.30
61896;DHT22;47835;52.778;5.956;2022-07-30T11:27:44;22.40;94.10
61896;DHT22;47835;52.778;5.956;2022-07-30T11:35:25;22.40;93.80
61896;DHT22;47835;52.778;5.956;2022-07-30T11:40:24;22.40;93.50
61896;DHT22;47835;52.778;5.956;2022-07-30T11:42:50;22.40;93.50
61896;DHT22;47835;52.778;5.956;2022-07-30T11:47:50;22.40;93.90
61896;DHT22;47835;52.778;5.956;2022-07-30T11:50:30;22.40;94.10
61896;DHT22;47835;52.778;5.956;2022-07-30T11:53:07;22.40;93.80
61896;DHT22;47835;52.778;5.956;2022-07-30T11:55:35;22.40;94.00
61896;DHT22;47835;52.778;5.956;2022-07-30T11:58:04;22.50;93.90
61896;DHT22;47835;52.778;5.956;2022-07-30T12:00:39;22.40;93.20
61896;DHT22;47835;52.778;5.956;2022-07-30T12:03:13;22.40;92.90
61896;DHT22;47835;52.778;5.956;2022-07-30T12:05:39;22.40;92.80
61896;DHT22;47835;52.778;5.956;2022-07-30T12:08:05;22.40;92.70
61896;DHT22;47835;52.778;5.956;2022-07-30T12:10:31;22.40;92.50
61896;DHT22;47835;52.778;5.956;2022-07-30T12:13:13;22.40;92.40
61896;DHT22;47835;52.778;5.956;2022-07-30T12:15:43;22.40;92.50
61896;DHT22;47835;52.778;5.956;2022-07-30T12:18:10;22.40;92.60
61896;DHT22;47835;52.778;5.956;2022-07-30T12:20:38;22.40;92.60
61896;DHT22;47835;52.778;5.956;2022-07-30T12:23:14;22.40;92.50
61896;DHT22;47835;52.778;5.956;2022-07-30T12:25:42;22.40;92.30
61896;DHT22;47835;52.778;5.956;2022-07-30T12:28:08;22.40;92.40
61896;DHT22;47835;52.778;5.956;2022-07-30T12:30:37;22.40;92.20
61896;DHT22;47835;52.778;5.956;2022-07-30T12:33:04;22.40;92.30
61896;DHT22;47835;52.778;5.956;2022-07-30T12:38:08;22.40;92.20
61896;DHT22;47835;52.778;5.956;2022-07-30T12:40:58;22.40;92.20
61896;DHT22;47835;52.778;5.956;2022-07-30T12:43:45;22.40;92.10
61896;DHT22;47835;52.778;5.956;2022-07-30T12:46:19;22.40;91.90
61896;DHT22;47835;52.778;5.956;2022-07-30T12:49:02;22.40;91.90
61896;DHT22;47835;52.778;5.956;2022-07-30T12:51:32;22.40;92.00
61896;DHT22;47835;52.778;5.956;2022-07-30T12:53:59;22.40;92.10
61896;DHT22;47835;52.778;5.956;2022-07-30T12:56:27;22.50;92.10
61896;DHT22;47835;52.778;5.956;2022-07-30T12:58:54;22.40;92.00
61896;DHT22;47835;52.778;5.956;2022-07-30T13:01:44;22.40;92.00
61896;DHT22;47835;52.778;5.956;2022-07-30T13:04:11;22.50;92.10
61896;DHT22;47835;52.778;5.956;2022-07-30T13:06:37;22.40;92.10
61896;DHT22;47835;52.778;5.956;2022-07-30T13:09:05;22.40;92.10
61896;DHT22;47835;52.778;5.956;2022-07-30T13:11:42;22.50;92.10
61896;DHT22;47835;52.778;5.956;2022-07-30T13:14:09;22.50;92.10
61896;DHT22;47835;52.778;5.956;2022-07-30T13:16:37;22.40;92.30
61896;DHT22;47835;52.778;5.956;2022-07-30T13:19:07;22.50;92.00
61896;DHT22;47835;52.778;5.956;2022-07-30T13:21:33;22.50;92.00
61896;DHT22;47835;52.778;5.956;2022-07-30T13:24:00;22.50;91.90
61896;DHT22;47835;52.778;5.956;2022-07-30T13:26:27;22.50;92.00
61896;DHT22;47835;52.778;5.956;2022-07-30T13:28:57;22.40;91.90
61896;DHT22;47835;52.778;5.956;2022-07-30T13:31:24;22.50;91.90
61896;DHT22;47835;52.778;5.956;2022-07-30T13:33:50;22.50;91.90
61896;DHT22;47835;52.778;5.956;2022-07-30T13:36:16;22.50;91.90
61896;DHT22;47835;52.778;5.956;2022-07-30T13:38:43;22.50;91.80
61896;DHT22;47835;52.778;5.956;2022-07-30T13:41:09;22.50;91.90
61896;DHT22;47835;52.778;5.956;2022-07-30T13:43:34;22.50;91.70
61896;DHT22;47835;52.778;5.956;2022-07-30T13:46:01;22.50;91.70
61896;DHT22;47835;52.778;5.956;2022-07-30T13:48:27;22.50;91.70
61896;DHT22;47835;52.778;5.956;2022-07-30T13:50:53;22.50;91.60
61896;DHT22;47835;52.778;5.956;2022-07-30T13:53:19;22.50;91.60
61896;DHT22;47835;52.778;5.956;2022-07-30T13:55:45;22.50;91.60
61896;DHT22;47835;52.778;5.956;2022-07-30T13:58:11;22.50;91.60
61896;DHT22;47835;52.778;5.956;2022-07-30T14:00:37;22.50;91.60
61896;DHT22;47835;52.778;5.956;2022-07-30T14:03:06;22.50;91.50
61896;DHT22;47835;52.778;5.956;2022-07-30T14:05:32;22.50;91.60
61896;DHT22;47835;52.778;5.956;2022-07-30T14:07:58;22.50;91.50
61896;DHT22;47835;52.778;5.956;2022-07-30T14:10:24;22.50;91.50
61896;DHT22;47835;52.778;5.956;2022-07-30T14:12:52;22.50;91.50
61896;DHT22;47835;52.778;5.956;2022-07-30T14:15:24;22.50;91.50
61896;DHT22;47835;52.778;5.956;2022-07-30T14:17:50;22.50;91.50
61896;DHT22;47835;52.778;5.956;2022-07-30T14:20:17;22.50;91.50
61896;DHT22;47835;52.778;5.956;2022-07-30T14:22:43;22.50;91.50
61896;DHT22;47835;52.778;5.956;2022-07-30T14:25:09;22.50;91.60
61896;DHT22;47835;52.778;5.956;2022-07-30T14:27:35;22.50;91.70
61896;DHT22;47835;52.778;5.956;2022-07-30T14:30:02;22.50;91.70
61896;DHT22;47835;52.778;5.956;2022-07-30T14:32:28;22.50;91.80
61896;DHT22;47835;52.778;5.956;2022-07-30T14:34:54;22.50;91.80
61896;DHT22;47835;52.778;5.956;2022-07-30T14:37:19;22.50;91.80
61896;DHT22;47835;52.778;5.956;2022-07-30T14:39:45;22.50;91.80
61896;DHT22;47835;52.778;5.956;2022-07-30T14:42:10;22.50;91.70
61896;DHT22;47835;52.778;5.956;2022-07-30T14:44:36;22.50;92.10
61896;DHT22;47835;52.778;5.956;2022-07-30T14:47:02;22.50;91.70
61896;DHT22;47835;52.778;5.956;2022-07-30T14:49:28;22.50;92.00
61896;DHT22;47835;52.778;5.956;2022-07-30T14:51:53;22.50;91.70
61896;DHT22;47835;52.778;5.956;2022-07-30T14:54:19;22.50;91.70
61896;DHT22;47835;52.778;5.956;2022-07-30T14:56:45;22.50;91.70
61896;DHT22;47835;52.778;5.956;2022-07-30T14:59:11;22.50;91.60
61896;DHT22;47835;52.778;5.956;2022-07-30T15:01:37;22.50;91.70
61896;DHT22;47835;52.778;5.956;2022-07-30T15:04:02;22.50;91.70
61896;DHT22;47835;52.778;5.956;2022-07-30T15:06:28;22.50;91.80
61896;DHT22;47835;52.778;5.956;2022-07-30T15:08:54;22.50;91.70
61896;DHT22;47835;52.778;5.956;2022-07-30T15:11:19;22.50;91.80
61896;DHT22;47835;52.778;5.956;2022-07-30T15:13:45;22.50;91.80
61896;DHT22;47835;52.778;5.956;2022-07-30T15:16:11;22.50;91.80
61896;DHT22;47835;52.778;5.956;2022-07-30T15:18:36;22.50;91.90
61896;DHT22;47835;52.778;5.956;2022-07-30T15:21:02;22.50;91.90
61896;DHT22;47835;52.778;5.956;2022-07-30T15:23:28;22.50;91.70
61896;DHT22;47835;52.778;5.956;2022-07-30T15:25:54;22.50;91.50
61896;DHT22;47835;52.778;5.956;2022-07-30T15:28:19;22.50;91.60
61896;DHT22;47835;52.778;5.956;2022-07-30T15:30:45;22.50;91.70
61896;DHT22;47835;52.778;5.956;2022-07-30T15:33:10;22.50;91.70
61896;DHT22;47835;52.778;5.956;2022-07-30T15:35:36;22.50;91.70
61896;DHT22;47835;52.778;5.956;2022-07-30T15:38:02;22.50;92.00
61896;DHT22;47835;52.778;5.956;2022-07-30T15:40:27;22.50;92.00
61896;DHT22;47835;52.778;5.956;2022-07-30T15:42:53;22.50;92.00
61896;DHT22;47835;52.778;5.956;2022-07-30T15:45:19;22.50;92.00
61896;DHT22;47835;52.778;5.956;2022-07-30T15:47:45;22.50;91.90
61896;DHT22;47835;52.778;5.956;2022-07-30T15:50:11;22.50;92.00
61896;DHT22;47835;52.778;5.956;2022-07-30T15:52:36;22.50;91.90
61896;DHT22;47835;52.778;5.956;2022-07-30T15:55:04;22.50;92.10
61896;DHT22;47835;52.778;5.956;2022-07-30T15:57:29;22.50;92.00
61896;DHT22;47835;52.778;5.956;2022-07-30T15:59:56;22.50;92.20
61896;DHT22;47835;52.778;5.956;2022-07-30T16:02:21;22.50;92.20
61896;DHT22;47835;52.778;5.956;2022-07-30T16:04:47;22.50;92.00
61896;DHT22;47835;52.778;5.956;2022-07-30T16:07:12;22.50;91.90